Time;durP1;ratioP1;P1;durP2;ratioP2;P2;SDS_P1;SDS_P2;PMS_P1;PMS_P2;Temp;Humidity;BMP_temperature;BMP_pressure;BME280_temperature;BME280_humidity;BME280_pressure;Samples;Min_cycle;Max_cycle;Signal;HPM_P1;HPM_P2
2021/07/29 00:02:12;;;;;;;0.10;0.10;;;;;;;14.78;85.61;100296.06;5023168;28;20049;-89
2021/07/29 00:04:40;;;;;;;0.10;0.10;;;;;;;14.80;86.27;100285.56;5030959;28;20056;-90
2021/07/29 00:07:13;;;;;;;0.10;0.10;;;;;;;14.81;84.86;100281.72;5026268;28;20053;-88
2021/07/29 00:10:05;;;;;;;0.10;0.10;;;;;;;14.86;84.66;100278.00;5020025;28;20050;-90
2021/07/29 00:13:32;;;;;;;0.10;0.10;;;;;;;14.87;84.03;100274.16;5013968;28;20495;-90
2021/07/29 00:20:09;;;;;;;0.10;0.10;;;;;;;14.88;86.31;100256.59;5018175;28;20413;-90
2021/07/29 00:22:38;;;;;;;0.20;0.20;;;;;;;14.91;86.26;100267.72;5037186;28;20048;-90
2021/07/29 00:25:13;;;;;;;0.10;0.10;;;;;;;14.91;87.02;100267.72;5031653;28;20038;-90
2021/07/29 00:28:02;;;;;;;0.10;0.10;;;;;;;14.92;86.53;100255.63;5030776;28;20045;-90
2021/07/29 00:30:35;;;;;;;0.10;0.10;;;;;;;14.92;86.67;100254.84;5030760;28;20042;-91
2021/07/29 00:33:03;;;;;;;0.10;0.10;;;;;;;14.96;85.04;100253.06;5030293;28;20049;-89
2021/07/29 00:35:37;;;;;;;0.10;0.10;;;;;;;14.94;86.65;100247.91;5030561;28;20383;-89
2021/07/29 00:38:05;;;;;;;0.10;0.10;;;;;;;14.86;83.79;100229.53;5019088;28;20054;-90
2021/07/29 00:40:40;;;;;;;0.10;0.10;;;;;;;14.94;86.46;100249.84;5031072;28;20068;-90
2021/07/29 00:43:08;;;;;;;0.10;0.10;;;;;;;14.87;88.01;100241.28;5020149;28;20048;-90
2021/07/29 00:45:46;;;;;;;0.10;0.10;;;;;;;14.90;86.72;100244.19;5022279;28;20056;-91
2021/07/29 00:48:21;;;;;;;0.10;0.10;;;;;;;14.96;86.73;100250.34;5025566;28;20041;-91
2021/07/29 00:50:54;;;;;;;0.10;0.10;;;;;;;15.01;86.18;100250.19;5022910;28;20502;-90
2021/07/29 00:53:29;;;;;;;0.10;0.10;;;;;;;15.01;85.52;100246.63;5035323;28;20113;-89
2021/07/29 00:56:05;;;;;;;0.10;0.10;;;;;;;15.00;85.90;100242.25;5033994;28;20516;-90
2021/07/29 00:58:44;;;;;;;0.10;0.10;;;;;;;15.01;85.65;100244.72;5035169;28;20490;-90
2021/07/29 01:01:20;;;;;;;0.10;0.10;;;;;;;15.05;85.61;100248.41;5021749;28;20041;-88
2021/07/29 01:03:48;;;;;;;0.10;0.10;;;;;;;15.04;86.29;100244.06;5034664;28;20049;-90
2021/07/29 01:06:28;;;;;;;0.20;0.20;;;;;;;15.02;86.05;100245.50;5033497;28;20084;-90
2021/07/29 01:09:04;;;;;;;0.10;0.10;;;;;;;15.06;87.07;100247.28;5023207;28;20050;-91
2021/07/29 01:11:42;;;;;;;0.20;0.20;;;;;;;15.03;85.70;100244.38;5030392;28;20052;-90
2021/07/29 01:14:16;;;;;;;0.10;0.10;;;;;;;15.03;85.76;100247.91;5030731;28;20041;-91
2021/07/29 01:16:45;;;;;;;0.10;0.10;;;;;;;15.00;85.27;100245.81;5033945;28;20568;-90
2021/07/29 01:19:24;;;;;;;0.20;0.20;;;;;;;15.01;85.49;100243.88;5030226;28;20048;-90
2021/07/29 01:21:58;;;;;;;0.10;0.10;;;;;;;14.88;86.47;100234.69;5032228;28;20057;-89
2021/07/29 01:24:32;;;;;;;0.10;0.10;;;;;;;14.83;86.73;100235.66;5024639;28;20793;-90
2021/07/29 01:27:32;;;;;;;0.10;0.10;;;;;;;14.72;86.38;100234.31;5046941;28;20053;-90
2021/07/29 01:30:06;;;;;;;0.10;0.10;;;;;;;14.71;85.61;100225.31;5035209;28;20374;-90
2021/07/29 01:32:36;;;;;;;0.10;0.10;;;;;;;14.57;87.28;100222.66;5033194;28;20059;-90
2021/07/29 01:35:09;;;;;;;0.10;0.10;;;;;;;14.52;86.96;100216.53;5033918;28;20058;-90
2021/07/29 01:37:40;;;;;;;0.10;0.10;;;;;;;14.41;86.29;100208.59;5035914;28;20045;-90
2021/07/29 01:40:31;;;;;;;0.10;0.10;;;;;;;14.43;86.77;100217.31;5033638;28;20060;-90
2021/07/29 01:43:01;;;;;;;0.10;0.10;;;;;;;14.30;87.35;100204.53;5032312;28;20056;-91
2021/07/29 01:45:35;;;;;;;0.10;0.10;;;;;;;14.27;88.17;100200.50;5031591;28;20054;-89
2021/07/29 01:48:03;;;;;;;0.10;0.10;;;;;;;14.24;86.54;100203.06;5032538;28;20054;-90
2021/07/29 01:50:36;;;;;;;0.10;0.10;;;;;;;14.17;87.93;100198.06;5034542;28;20386;-90
2021/07/29 01:53:15;;;;;;;0.10;0.10;;;;;;;14.13;88.34;100202.53;5034224;28;20045;-91
2021/07/29 01:55:49;;;;;;;0.10;0.10;;;;;;;13.98;88.60;100175.59;5033328;28;20053;-90
2021/07/29 01:58:22;;;;;;;0.20;0.20;;;;;;;14.14;89.33;100197.88;5033080;28;20056;-91
2021/07/29 02:00:54;;;;;;;0.20;0.20;;;;;;;14.12;88.65;100192.72;5030065;28;20054;-90
2021/07/29 02:03:28;;;;;;;0.20;0.20;;;;;;;14.08;89.66;100189.00;5032112;28;20049;-89
2021/07/29 02:06:05;;;;;;;0.10;0.10;;;;;;;14.11;88.08;100177.41;5033366;28;20045;-90
2021/07/29 02:08:40;;;;;;;0.10;0.10;;;;;;;13.90;89.44;100136.13;5032642;28;20049;-90
2021/07/29 02:11:13;;;;;;;0.10;0.10;;;;;;;13.89;89.01;100140.81;5021343;28;20049;-91
2021/07/29 02:13:46;;;;;;;0.10;0.10;;;;;;;14.17;89.89;100178.06;5024951;28;20049;-89
2021/07/29 02:16:14;;;;;;;0.10;0.10;;;;;;;14.14;88.57;100168.59;5031424;28;20079;-89
2021/07/29 02:18:48;;;;;;;0.20;0.20;;;;;;;14.21;88.81;100182.63;5031348;28;20064;-90
2021/07/29 02:21:22;;;;;;;0.10;0.10;;;;;;;14.20;88.18;100172.78;5021237;28;20053;-91
2021/07/29 02:23:56;;;;;;;0.13;0.13;;;;;;;14.28;88.97;100182.97;5030247;28;20466;-90
2021/07/29 02:26:29;;;;;;;0.20;0.20;;;;;;;14.20;88.93;100174.72;5026243;28;20045;-90
2021/07/29 02:32:40;;;;;;;0.10;0.10;;;;;;;14.15;89.74;100170.19;5015962;28;20053;-90
2021/07/29 02:35:13;;;;;;;0.20;0.20;;;;;;;14.15;90.00;100156.50;5032579;28;20053;-90
2021/07/29 02:37:46;;;;;;;0.10;0.10;;;;;;;14.12;88.79;100149.72;5032126;28;20064;-90
2021/07/29 02:40:20;;;;;;;0.20;0.20;;;;;;;14.12;90.02;100160.69;5032473;28;20049;-90
2021/07/29 02:42:50;;;;;;;0.20;0.20;;;;;;;14.09;90.60;100160.53;5031730;28;20053;-90
2021/07/29 02:45:23;;;;;;;0.15;0.15;;;;;;;14.07;89.83;100166.31;5033340;28;20049;-90
2021/07/29 02:47:51;;;;;;;0.10;0.10;;;;;;;14.06;89.41;100166.63;5013702;28;20069;-90
2021/07/29 02:50:24;;;;;;;0.10;0.10;;;;;;;14.00;90.72;100165.13;5032098;28;20054;-89
2021/07/29 02:52:57;;;;;;;0.10;0.10;;;;;;;13.95;90.64;100164.16;5031140;28;20050;-91
2021/07/29 02:55:59;;;;;;;0.10;0.10;;;;;;;14.01;89.97;100166.75;5031499;28;20058;-89
2021/07/29 02:58:32;;;;;;;0.10;0.10;;;;;;;13.97;90.08;100163.03;5013471;28;20545;-90
2021/07/29 03:01:06;;;;;;;0.10;0.10;;;;;;;14.04;90.12;100164.19;5026834;28;20049;-91
2021/07/29 03:03:34;;;;;;;0.10;0.10;;;;;;;13.98;90.04;100153.72;5025078;28;20057;-90
2021/07/29 03:06:07;;;;;;;0.10;0.10;;;;;;;14.04;90.83;100150.50;5031966;28;20060;-90
2021/07/29 03:08:44;;;;;;;0.10;0.10;;;;;;;14.08;89.65;100159.69;5022877;28;20049;-90
2021/07/29 03:11:44;;;;;;;;;;;;;;;14.10;90.40;100156.66;5032967;28;20045;-87
2021/07/29 03:14:23;;;;;;;0.10;0.10;;;;;;;14.14;89.51;100157.66;5030721;28;19921;-90
2021/07/29 03:16:52;;;;;;;0.10;0.10;;;;;;;14.08;89.46;100147.94;5026892;28;20049;-89
2021/07/29 03:19:26;;;;;;;0.10;0.10;;;;;;;14.09;89.51;100144.09;5043190;28;20049;-90
2021/07/29 03:22:05;;;;;;;0.10;0.10;;;;;;;14.15;90.61;100150.22;5026611;28;20049;-90
2021/07/29 03:24:37;;;;;;;0.10;0.10;;;;;;;14.16;89.77;100138.16;5027403;28;20053;-89
2021/07/29 03:30:36;;;;;;;0.10;0.10;;;;;;;14.18;88.54;100144.13;5046889;28;20056;-90
2021/07/29 03:33:12;;;;;;;0.13;0.13;;;;;;;14.19;89.16;100146.53;5032602;28;20060;-89
2021/07/29 03:35:45;;;;;;;0.10;0.10;;;;;;;14.19;89.72;100140.28;5028513;28;20060;-90
2021/07/29 03:39:11;;;;;;;0.10;0.10;;;;;;;14.23;89.42;100150.25;5044010;28;20067;-90
2021/07/29 03:41:44;;;;;;;0.20;0.20;;;;;;;14.27;88.67;100162.19;5030736;28;20058;-90
2021/07/29 03:44:17;;;;;;;0.10;0.10;;;;;;;14.23;87.71;100144.78;5028526;28;20049;-90
2021/07/29 03:47:09;;;;;;;0.20;0.20;;;;;;;14.33;88.31;100159.31;5030499;28;20498;-90
2021/07/29 03:49:42;;;;;;;0.10;0.10;;;;;;;14.35;88.61;100144.19;5031518;28;20045;-90
2021/07/29 03:52:23;;;;;;;0.10;0.10;;;;;;;14.41;87.71;100150.31;5031097;28;20053;-89
2021/07/29 03:58:30;;;;;;;0.10;0.10;;;;;;;14.50;88.06;100147.56;5029788;28;20132;-90
2021/07/29 04:01:05;;;;;;;0.10;0.10;;;;;;;14.50;87.63;100148.41;5031746;28;20486;-90
2021/07/29 04:03:34;;;;;;;0.20;0.20;;;;;;;14.51;87.02;100141.78;5031551;28;20046;-90
2021/07/29 04:06:08;;;;;;;0.10;0.10;;;;;;;14.50;87.53;100151.13;5031178;28;20567;-91
2021/07/29 04:08:41;;;;;;;0.10;0.10;;;;;;;14.54;87.66;100146.63;5031413;28;20528;-91
2021/07/29 04:11:15;;;;;;;0.10;0.10;;;;;;;14.59;86.66;100148.41;5030338;28;20080;-90
2021/07/29 04:13:48;;;;;;;0.20;0.20;;;;;;;14.35;87.21;100110.50;5036927;28;20058;-91
2021/07/29 04:16:21;;;;;;;0.20;0.20;;;;;;;14.63;86.40;100150.22;5031361;28;20050;-90
2021/07/29 04:18:56;;;;;;;0.10;0.10;;;;;;;14.69;85.43;100141.84;5032907;28;20387;-90
2021/07/29 04:21:29;;;;;;;0.10;0.10;;;;;;;14.68;85.10;100149.25;5031591;28;20053;-90
2021/07/29 04:24:03;;;;;;;0.10;0.10;;;;;;;14.82;84.19;100157.34;5029945;28;20053;-88
2021/07/29 04:27:21;;;;;;;0.10;0.10;;;;;;;14.88;83.27;100155.25;5036122;28;20041;-91
2021/07/29 04:29:50;;;;;;;0.13;0.13;;;;;;;14.89;82.32;100160.38;5034783;28;20049;-91
2021/07/29 04:32:20;;;;;;;0.10;0.10;;;;;;;14.96;81.57;100155.22;5034807;28;20053;-90
2021/07/29 04:34:50;;;;;;;0.17;0.17;;;;;;;14.99;81.86;100163.94;5035225;28;20050;-91
2021/07/29 04:37:23;;;;;;;0.10;0.10;;;;;;;15.12;82.55;100152.00;5035259;28;20056;-90
2021/07/29 04:40:25;;;;;;;0.10;0.10;;;;;;;15.00;83.21;100162.78;5036207;28;20050;-90
2021/07/29 04:43:03;;;;;;;0.20;0.20;;;;;;;15.04;82.99;100155.53;5032257;28;20414;-90
2021/07/29 04:45:36;;;;;;;0.10;0.10;;;;;;;15.04;80.94;100164.59;5032594;28;20042;-91
2021/07/29 04:48:05;;;;;;;0.10;0.10;;;;;;;15.04;82.15;100169.25;5034547;28;20064;-90
2021/07/29 04:51:23;;;;;;;0.10;0.10;;;;;;;14.90;83.89;100166.66;5032041;28;20053;-91
2021/07/29 04:53:58;;;;;;;0.10;0.10;;;;;;;14.87;83.40;100168.09;5025945;28;20579;-90
2021/07/29 04:57:27;;;;;;;0.10;0.10;;;;;;;15.01;82.79;100161.69;5034730;28;20506;-90
2021/07/29 04:59:56;;;;;;;0.10;0.10;;;;;;;15.07;82.62;100161.19;5034597;28;20053;-90
2021/07/29 05:02:29;;;;;;;0.20;0.20;;;;;;;15.14;82.96;100157.97;5035268;28;20050;-91
2021/07/29 05:05:31;;;;;;;0.10;0.10;;;;;;;15.26;82.81;100154.56;5034700;28;20053;-90
2021/07/29 05:07:59;;;;;;;0.10;0.10;;;;;;;15.22;81.47;100157.16;5034381;28;20048;-91
2021/07/29 05:10:35;;;;;;;0.10;0.10;;;;;;;15.23;81.19;100157.97;5035780;28;20050;-91
2021/07/29 05:13:09;;;;;;;0.20;0.20;;;;;;;14.89;81.76;100118.50;5029978;28;20053;-91
2021/07/29 05:15:42;;;;;;;0.10;0.10;;;;;;;15.08;82.14;100168.28;5034474;28;20513;-90
2021/07/29 05:19:00;;;;;;;0.10;0.10;;;;;;;15.22;80.64;100153.59;5031058;28;20054;-91
2021/07/29 05:22:01;;;;;;;0.10;0.10;;;;;;;15.18;81.57;100166.34;5014489;28;20506;-91
2021/07/29 05:24:34;;;;;;;0.10;0.10;;;;;;;15.11;82.05;100158.63;5029736;28;20037;-90
2021/07/29 05:27:09;;;;;;;0.10;0.10;;;;;;;15.12;82.63;100155.56;5034324;28;20045;-89
2021/07/29 05:29:42;;;;;;;0.20;0.20;;;;;;;15.24;81.75;100157.63;5039464;28;20414;-91
2021/07/29 05:32:15;;;;;;;0.20;0.20;;;;;;;15.21;81.64;100155.53;5034702;28;20049;-90
2021/07/29 05:39:13;;;;;;;0.10;0.10;;;;;;;15.28;80.42;100155.84;5030266;28;20057;-90
2021/07/29 05:41:50;;;;;;;0.17;0.17;;;;;;;15.10;83.08;100135.09;5033418;28;20054;-91
2021/07/29 05:48:44;;;;;;;0.10;0.10;;;;;;;15.39;81.25;100139.88;5038007;28;20044;-89
2021/07/29 05:51:17;;;;;;;0.10;0.10;;;;;;;15.75;81.19;100138.66;5039763;28;20049;-90
2021/07/29 05:53:45;;;;;;;0.10;0.10;;;;;;;15.92;81.38;100126.84;5050088;28;20054;-90
2021/07/29 05:57:00;;;;;;;0.10;0.10;;;;;;;16.12;80.50;100132.72;5031430;28;20525;-89
2021/07/29 05:59:28;;;;;;;0.10;0.10;;;;;;;16.33;80.59;100119.81;5034549;28;20045;-90
2021/07/29 06:02:01;;;;;;;0.10;0.10;;;;;;;16.52;78.27;100132.34;5033037;28;20414;-90
2021/07/29 06:04:40;;;;;;;0.10;0.10;;;;;;;16.53;77.88;100131.19;5034723;28;20048;-91
2021/07/29 06:07:37;;;;;;;0.10;0.10;;;;;;;16.51;77.64;100119.72;5034757;28;20046;-90
2021/07/29 06:10:35;;;;;;;0.10;0.10;;;;;;;16.80;78.82;100115.31;5033184;28;20049;-88
2021/07/29 06:13:28;;;;;;;0.10;0.10;;;;;;;16.59;78.39;100129.84;5043002;28;20520;-91
2021/07/29 06:15:58;;;;;;;0.10;0.10;;;;;;;16.67;78.14;100128.97;5033454;28;20072;-91
2021/07/29 06:19:04;;;;;;;0.10;0.10;;;;;;;16.45;78.76;100130.09;5014474;28;20050;-92
2021/07/29 06:22:31;;;;;;;0.10;0.10;;;;;;;16.61;78.65;100126.75;5032457;28;20041;-91
2021/07/29 06:25:06;;;;;;;0.10;0.10;;;;;;;16.69;77.89;100111.38;5031690;28;20391;-91
2021/07/29 06:27:44;;;;;;;0.10;0.10;;;;;;;16.97;78.10;100130.88;5032308;28;20056;-91
2021/07/29 06:30:51;;;;;;;0.13;0.13;;;;;;;17.05;76.17;100129.22;5046690;28;20072;-90
2021/07/29 06:37:33;;;;;;;0.10;0.10;;;;;;;17.04;74.00;100125.66;5032132;28;20045;-92
2021/07/29 06:40:09;;;;;;;0.10;0.10;;;;;;;17.08;74.28;100128.53;5019684;28;20057;-89
2021/07/29 06:42:47;;;;;;;0.10;0.10;;;;;;;17.46;77.06;100117.31;5035267;28;20066;-86
2021/07/29 06:45:16;;;;;;;0.10;0.10;;;;;;;17.16;72.85;100094.66;5026784;28;20073;-90
2021/07/29 06:47:49;;;;;;;0.10;0.10;;;;;;;17.18;71.59;100133.63;5010395;28;20053;-92
2021/07/29 06:50:20;;;;;;;0.10;0.10;;;;;;;17.00;73.43;100083.50;5016006;28;20399;-90
2021/07/29 06:52:50;;;;;;;0.10;0.10;;;;;;;17.44;72.28;100130.59;5011506;28;20050;-88
2021/07/29 06:55:51;;;;;;;0.10;0.10;;;;;;;17.68;72.66;100143.59;5006022;28;20054;-90
2021/07/29 06:58:23;;;;;;;0.10;0.10;;;;;;;17.47;69.16;100131.88;5028044;28;20053;-91
2021/07/29 07:01:17;;;;;;;0.17;0.17;;;;;;;17.21;71.78;100135.69;5010242;28;20057;-89
2021/07/29 07:03:51;;;;;;;0.13;0.13;;;;;;;17.22;72.69;100111.72;5003903;28;20057;-93
2021/07/29 07:06:25;;;;;;;0.13;0.13;;;;;;;17.04;71.02;100133.91;5003358;28;20049;-90
2021/07/29 07:09:08;;;;;;;0.10;0.10;;;;;;;17.03;70.41;100140.53;5001697;28;20068;-90
2021/07/29 07:11:48;;;;;;;0.10;0.10;;;;;;;17.06;71.95;100142.63;5003125;28;20061;-90
2021/07/29 07:14:22;;;;;;;0.10;0.10;;;;;;;17.38;71.11;100139.41;5011680;28;20535;-91
2021/07/29 07:16:54;;;;;;;0.10;0.10;;;;;;;17.49;69.60;100149.63;5006401;28;20057;-90
2021/07/29 07:19:23;;;;;;;0.10;0.10;;;;;;;17.56;70.72;100140.81;4998573;28;20056;-87
2021/07/29 07:21:58;;;;;;;0.20;0.20;;;;;;;17.60;69.02;100143.72;5018519;28;20076;-89
2021/07/29 07:24:35;;;;;;;0.10;0.10;;;;;;;17.33;68.08;100146.72;5004001;28;20061;-87
2021/07/29 07:27:36;;;;;;;;;;;;;;;17.42;70.27;100148.59;5004591;28;20807;-90
2021/07/29 07:30:15;;;;;;;0.10;0.10;;;;;;;17.43;68.08;100141.97;5000465;28;20798;-87
2021/07/29 07:32:49;;;;;;;0.10;0.10;;;;;;;17.45;68.32;100136.91;5003769;28;20061;-88
2021/07/29 07:35:19;;;;;;;0.10;0.10;;;;;;;17.71;70.77;100142.13;5000994;28;20711;-87
2021/07/29 07:37:48;;;;;;;0.10;0.10;;;;;;;17.56;67.77;100132.56;5003494;28;20062;-90
2021/07/29 07:40:20;;;;;;;0.10;0.10;;;;;;;17.45;68.96;100140.44;4999550;28;20061;-90
2021/07/29 07:42:55;;;;;;;0.10;0.10;;;;;;;17.38;68.91;100126.44;5002395;28;20065;-91
2021/07/29 07:45:35;;;;;;;0.10;0.10;;;;;;;17.32;69.31;100144.31;5000033;28;20575;-88
2021/07/29 07:48:09;;;;;;;0.10;0.10;;;;;;;17.28;66.44;100138.69;5002587;28;20803;-92
2021/07/29 07:50:42;;;;;;;0.10;0.10;;;;;;;17.29;64.67;100139.47;5007667;28;20080;-90
2021/07/29 07:53:16;;;;;;;0.10;0.10;;;;;;;17.78;65.94;100142.34;5003449;28;20750;-87
2021/07/29 07:55:49;;;;;;;0.20;0.20;;;;;;;18.10;67.12;100130.84;5003875;28;20065;-87
2021/07/29 07:58:38;;;;;;;0.10;0.10;;;;;;;17.93;63.80;100129.13;5010624;28;20048;-88
2021/07/29 08:01:19;;;;;;;0.10;0.10;;;;;;;17.73;65.59;100126.09;5011886;28;20065;-89
2021/07/29 08:03:53;;;;;;;0.10;0.10;;;;;;;17.57;64.74;100138.91;5006570;28;20053;-91
2021/07/29 08:06:26;;;;;;;0.10;0.10;;;;;;;17.57;66.12;100142.44;5009746;28;20057;-90
2021/07/29 08:09:05;;;;;;;0.10;0.10;;;;;;;17.16;67.83;100135.88;5010009;28;20073;-89
2021/07/29 08:12:01;;;;;;;0.10;0.10;;;;;;;17.44;62.36;100138.03;5015619;28;20064;-91
2021/07/29 08:14:35;;;;;;;0.10;0.10;;;;;;;17.57;64.66;100134.19;5006221;28;20065;-88
2021/07/29 08:17:12;;;;;;;0.10;0.10;;;;;;;17.29;65.42;100142.22;5007078;28;20061;-90
2021/07/29 08:19:45;;;;;;;0.20;0.20;;;;;;;17.22;66.65;100142.81;5010561;28;20050;-88
2021/07/29 08:22:18;;;;;;;0.20;0.20;;;;;;;16.90;64.00;100114.13;5008958;28;20054;-90
2021/07/29 08:24:47;;;;;;;0.10;0.10;;;;;;;17.13;68.95;100147.56;5010045;28;20058;-91
2021/07/29 08:27:22;;;;;;;0.10;0.10;;;;;;;17.62;66.11;100144.16;5016714;28;20061;-91
2021/07/29 08:29:50;;;;;;;0.10;0.10;;;;;;;17.78;61.81;100128.59;5007293;28;20062;-88
2021/07/29 08:32:27;;;;;;;0.10;0.10;;;;;;;17.63;64.20;100140.28;5006304;28;20065;-90
2021/07/29 08:34:57;;;;;;;0.20;0.20;;;;;;;17.78;65.88;100145.09;5011002;28;20060;-90
2021/07/29 08:37:30;;;;;;;0.10;0.10;;;;;;;18.21;63.97;100137.47;5013000;28;20049;-89
2021/07/29 08:40:05;;;;;;;0.10;0.10;;;;;;;18.10;63.32;100137.13;5011526;28;20065;-91
2021/07/29 08:42:33;;;;;;;0.10;0.10;;;;;;;18.29;66.22;100144.81;5007573;28;20048;-88
2021/07/29 08:45:09;;;;;;;0.10;0.10;;;;;;;18.11;64.76;100137.94;5019443;28;20064;-90
2021/07/29 08:48:10;;;;;;;0.10;0.10;;;;;;;17.93;62.09;100142.88;5005970;28;20818;-87
2021/07/29 08:50:40;;;;;;;0.10;0.10;;;;;;;17.93;61.90;100137.38;5006436;28;20061;-88
2021/07/29 08:53:13;;;;;;;0.10;0.10;;;;;;;17.95;61.82;100144.16;5004416;28;20057;-91
2021/07/29 08:55:54;;;;;;;0.10;0.10;;;;;;;18.08;60.90;100141.41;5005780;28;20073;-90
2021/07/29 08:59:21;;;;;;;0.10;0.10;;;;;;;17.92;62.59;100136.56;5006400;28;20060;-88
2021/07/29 09:01:56;;;;;;;0.20;0.20;;;;;;;17.88;62.58;100143.06;5012616;28;20066;-89
2021/07/29 09:04:30;;;;;;;0.20;0.20;;;;;;;17.93;61.69;100140.13;5007097;28;20053;-90
2021/07/29 09:07:07;;;;;;;0.17;0.17;;;;;;;18.55;63.71;100134.56;5005973;28;20064;-89
2021/07/29 09:09:45;;;;;;;0.10;0.10;;;;;;;18.83;59.57;100138.16;5005758;28;20049;-89
2021/07/29 09:12:21;;;;;;;0.10;0.10;;;;;;;19.09;60.74;100141.69;5007402;28;20049;-89
2021/07/29 09:14:55;;;;;;;0.10;0.10;;;;;;;19.29;59.06;100142.63;5006643;28;20051;-87
2021/07/29 09:17:44;;;;;;;0.10;0.10;;;;;;;19.29;58.83;100126.09;5010874;28;20069;-90
2021/07/29 09:20:19;;;;;;;0.10;0.10;;;;;;;19.59;56.96;100128.47;5006347;28;20065;-90
2021/07/29 09:22:53;;;;;;;0.10;0.10;;;;;;;19.65;56.70;100097.47;5007743;28;20069;-87
2021/07/29 09:25:28;;;;;;;0.10;0.10;;;;;;;19.36;55.96;100118.81;5004193;28;20054;-89
2021/07/29 09:28:03;;;;;;;0.10;0.10;;;;;;;19.10;54.95;100127.56;5009029;28;20065;-88
2021/07/29 09:30:36;;;;;;;0.10;0.10;;;;;;;19.17;57.31;100149.03;5010625;28;20049;-90
2021/07/29 09:33:13;;;;;;;0.10;0.10;;;;;;;19.49;59.47;100143.56;5012441;28;21372;-87
2021/07/29 09:35:45;;;;;;;0.10;0.10;;;;;;;19.60;59.91;100144.66;5003002;28;20053;-89
2021/07/29 09:38:24;;;;;;;0.10;0.10;;;;;;;19.67;55.46;100133.78;5004542;28;20060;-90
2021/07/29 09:40:59;;;;;;;0.10;0.10;;;;;;;19.93;59.45;100126.16;5003091;28;20058;-89
2021/07/29 09:43:42;;;;;;;0.10;0.10;;;;;;;19.83;53.76;100131.09;5019083;28;20454;-89
2021/07/29 09:46:17;;;;;;;0.10;0.10;;;;;;;20.04;57.76;100130.00;5001895;28;20060;-89
2021/07/29 09:48:51;;;;;;;0.10;0.10;;;;;;;20.41;59.03;100120.56;5003984;28;20049;-89
2021/07/29 09:51:28;;;;;;;0.10;0.10;;;;;;;19.80;55.05;100131.78;5008407;28;20049;-90
2021/07/29 09:54:05;;;;;;;0.20;0.20;;;;;;;19.62;55.00;100133.25;5000983;28;20057;-86
2021/07/29 09:56:44;;;;;;;0.10;0.10;;;;;;;19.19;56.49;100143.94;4997532;28;20062;-87
2021/07/29 09:59:18;;;;;;;0.10;0.10;;;;;;;19.05;56.02;100135.28;4997445;28;20056;-87
2021/07/29 10:01:55;;;;;;;0.40;0.10;;;;;;;18.84;55.92;100147.28;5003370;28;20053;-87
2021/07/29 10:04:41;;;;;;;0.10;0.10;;;;;;;18.60;56.90;100146.19;5002169;28;20042;-87
2021/07/29 10:07:25;;;;;;;0.20;0.20;;;;;;;18.93;58.18;100142.41;4999951;28;20057;-86
2021/07/29 10:09:55;;;;;;;0.10;0.10;;;;;;;19.32;53.38;100151.03;5000380;28;20486;-86
2021/07/29 10:12:27;;;;;;;0.10;0.10;;;;;;;19.22;54.08;100148.75;5001347;28;20560;-87
2021/07/29 10:14:56;;;;;;;0.10;0.10;;;;;;;18.75;52.74;100133.59;5005240;28;20049;-87
2021/07/29 10:18:23;;;;;;;0.10;0.10;;;;;;;18.89;54.29;100140.72;5003192;28;20065;-90
2021/07/29 10:21:21;;;;;;;0.10;0.10;;;;;;;19.31;55.31;100152.16;5008510;28;20049;-87
2021/07/29 10:23:58;;;;;;;0.20;0.20;;;;;;;19.20;51.42;100153.84;5003860;28;20056;-87
2021/07/29 10:27:10;;;;;;;0.10;0.10;;;;;;;18.86;54.23;100150.47;5003842;28;20053;-84
2021/07/29 10:29:42;;;;;;;0.10;0.10;;;;;;;18.60;53.23;100143.41;5005046;28;20140;-89
2021/07/29 10:32:16;;;;;;;0.10;0.10;;;;;;;18.60;57.29;100099.31;5006173;28;20069;-89
2021/07/29 10:34:52;;;;;;;0.10;0.10;;;;;;;19.33;56.45;100155.38;5008901;28;20057;-90
2021/07/29 10:37:42;;;;;;;0.10;0.10;;;;;;;19.53;53.54;100150.78;5007885;28;20057;-89
2021/07/29 10:40:13;;;;;;;0.10;0.10;;;;;;;19.36;52.16;100129.84;5008620;28;20054;-89
2021/07/29 10:42:46;;;;;;;0.10;0.10;;;;;;;19.33;49.69;100157.31;5006836;28;20625;-90
2021/07/29 10:45:48;;;;;;;0.10;0.10;;;;;;;19.22;51.84;100156.22;5004181;28;20073;-88
2021/07/29 10:49:00;;;;;;;0.10;0.10;;;;;;;18.85;50.43;100157.13;5006680;28;20057;-89
2021/07/29 10:51:34;;;;;;;0.10;0.10;;;;;;;18.69;55.01;100155.09;5000885;28;20060;-86
2021/07/29 10:54:04;;;;;;;0.10;0.10;;;;;;;18.60;57.97;100159.13;4999801;28;20054;-89
2021/07/29 10:56:40;;;;;;;0.10;0.10;;;;;;;18.70;53.86;100164.19;4998260;28;20057;-87
2021/07/29 10:59:18;;;;;;;0.20;0.20;;;;;;;19.16;52.11;100161.19;4997715;28;20054;-88
2021/07/29 11:01:53;;;;;;;0.10;0.10;;;;;;;19.16;50.20;100153.72;5002699;28;20679;-86
2021/07/29 11:04:30;;;;;;;0.10;0.10;;;;;;;19.29;54.33;100162.75;5002814;28;20045;-89
2021/07/29 11:07:05;;;;;;;0.20;0.20;;;;;;;19.23;51.36;100174.41;5003719;28;20061;-89
2021/07/29 11:09:35;;;;;;;0.17;0.17;;;;;;;19.25;49.18;100163.81;4999176;28;20053;-90
2021/07/29 11:12:13;;;;;;;0.10;0.10;;;;;;;19.60;53.41;100165.94;5005619;28;20056;-86
2021/07/29 11:14:48;;;;;;;0.10;0.10;;;;;;;19.66;55.73;100161.75;5002359;28;20057;-87
2021/07/29 11:17:23;;;;;;;0.10;0.10;;;;;;;19.50;54.70;100175.50;5007823;28;20045;-89
2021/07/29 11:19:52;;;;;;;0.10;0.10;;;;;;;19.76;54.50;100161.25;5003878;28;20053;-87
2021/07/29 11:22:27;;;;;;;0.10;0.10;;;;;;;19.91;48.80;100176.22;5007317;28;20073;-89
2021/07/29 11:25:09;;;;;;;0.10;0.10;;;;;;;19.82;51.09;100170.88;4999881;28;20053;-89
2021/07/29 11:27:46;;;;;;;0.10;0.10;;;;;;;19.49;49.95;100176.69;5012292;28;20410;-87
2021/07/29 11:30:16;;;;;;;0.10;0.10;;;;;;;19.89;53.53;100148.19;4999521;28;20064;-88
2021/07/29 11:32:55;;;;;;;0.10;0.10;;;;;;;19.93;50.72;100173.94;5003327;28;20037;-90
2021/07/29 11:35:31;;;;;;;0.10;0.10;;;;;;;19.45;50.25;100142.69;5009976;28;20053;-91
2021/07/29 11:38:16;;;;;;;0.10;0.10;;;;;;;19.32;52.36;100161.22;5002448;28;20058;-87
2021/07/29 11:40:59;;;;;;;0.10;0.10;;;;;;;19.00;49.76;100180.44;5003242;28;20425;-88
2021/07/29 11:43:30;;;;;;;0.10;0.10;;;;;;;19.15;50.58;100168.66;5005511;28;20053;-88
2021/07/29 11:46:05;;;;;;;0.20;0.20;;;;;;;19.17;51.21;100168.34;5005408;28;20045;-88
2021/07/29 11:49:05;;;;;;;0.10;0.10;;;;;;;19.62;52.84;100177.41;4998047;28;20050;-87
2021/07/29 11:51:40;;;;;;;0.10;0.10;;;;;;;19.38;49.54;100168.13;4997840;28;20053;-86
2021/07/29 11:54:22;;;;;;;0.15;0.15;;;;;;;19.27;50.96;100176.09;4998091;28;20829;-89
2021/07/29 11:56:55;;;;;;;0.10;0.10;;;;;;;19.08;56.14;100175.94;5003499;28;20135;-89
2021/07/29 11:59:27;;;;;;;0.10;0.10;;;;;;;18.72;53.58;100144.53;4997328;28;20061;-87
2021/07/29 12:02:02;;;;;;;0.10;0.10;;;;;;;18.35;52.19;100165.50;5006502;28;20524;-88
2021/07/29 12:05:04;;;;;;;0.10;0.10;;;;;;;18.47;53.78;100178.44;5023009;28;20059;-87
2021/07/29 12:07:42;;;;;;;0.10;0.10;;;;;;;18.73;55.01;100182.78;4999601;28;20049;-89
2021/07/29 12:10:18;;;;;;;0.10;0.10;;;;;;;18.80;55.53;100168.41;4999733;28;20062;-87
2021/07/29 12:12:47;;;;;;;0.10;0.10;;;;;;;19.08;53.13;100187.75;4998162;28;20052;-87
2021/07/29 12:15:17;;;;;;;0.15;0.15;;;;;;;19.71;49.59;100178.06;5003063;28;20068;-87
2021/07/29 12:17:45;;;;;;;0.10;0.10;;;;;;;19.34;49.23;100183.78;4993002;28;20057;-85
2021/07/29 12:20:15;;;;;;;0.10;0.10;;;;;;;19.36;49.03;100181.44;4990645;28;20053;-84
2021/07/29 12:22:44;;;;;;;0.10;0.10;;;;;;;19.72;49.88;100174.16;4991235;28;20053;-88
2021/07/29 12:25:28;;;;;;;0.10;0.10;;;;;;;20.01;52.37;100166.59;4996875;28;20060;-88
2021/07/29 12:28:03;;;;;;;0.10;0.10;;;;;;;20.16;50.20;100170.53;4999076;28;20984;-89
2021/07/29 12:30:41;;;;;;;0.13;0.13;;;;;;;20.37;51.12;100159.22;4996982;28;20889;-87
2021/07/29 12:33:19;;;;;;;0.10;0.10;;;;;;;20.54;51.76;100146.94;4998989;28;20532;-87
2021/07/29 12:35:57;;;;;;;;;;;;;;;20.79;50.51;100146.72;4998172;28;20050;-87
2021/07/29 12:38:30;;;;;;;0.10;0.10;;;;;;;20.48;45.84;100154.72;5000226;28;19929;-88
2021/07/29 12:41:06;;;;;;;0.10;0.10;;;;;;;20.81;48.20;100155.44;4998153;28;20057;-85
2021/07/29 12:43:40;;;;;;;0.10;0.10;;;;;;;20.01;45.01;100156.38;4993041;28;20057;-87
2021/07/29 12:46:22;;;;;;;0.10;0.10;;;;;;;19.71;47.97;100148.50;5000509;28;20066;-87